Terminal Aerodrome Forecast
Issued by NWS Rapid City, SD

Home | Current Version | Previous Version | Graphics & Text | Print | Product List | Glossary Off
Versions: 1 2 3 4 5 6 7 8 9 10 11 12 13

000
FTUS43 KUNR 221720
TAFRAP
TAF
KRAP 221720Z 2218/2318 27014KT P6SM BKN200
     FM230500 32022G32KT P6SM BKN100
     FM231400 33030G40KT P6SM SCT200=

USA.gov is the U.S. government's official web portal to all federal, state and local government web resources and services.